createdAt,value
2022-11-28T00:01:28.098Z,6.37
2022-11-28T00:03:55.647Z,6.37
2022-11-28T00:06:22.504Z,6.38
2022-11-28T00:08:49.192Z,6.39
2022-11-28T00:11:16.998Z,6.41
2022-11-28T00:13:44.134Z,6.43
2022-11-28T00:16:15.856Z,6.45
2022-11-28T00:18:42.464Z,6.47
2022-11-28T00:21:12.438Z,6.48
2022-11-28T00:23:39.764Z,6.49
2022-11-28T00:26:10.394Z,6.50
2022-11-28T00:28:37.825Z,6.52
2022-11-28T00:31:04.845Z,6.53
2022-11-28T00:33:32.816Z,6.54
2022-11-28T00:36:01.694Z,6.55
2022-11-28T00:38:29.315Z,6.54
2022-11-28T00:41:00.742Z,6.57
2022-11-28T00:43:28.205Z,6.58
2022-11-28T00:45:54.732Z,6.59
2022-11-28T00:48:21.384Z,6.59
2022-11-28T00:50:48.034Z,6.59
2022-11-28T00:53:14.528Z,6.59
2022-11-28T00:55:41.544Z,6.60
2022-11-28T00:58:08.163Z,6.60
2022-11-28T01:00:34.921Z,6.61
2022-11-28T01:03:01.487Z,6.62
2022-11-28T01:05:27.914Z,6.63
2022-11-28T01:07:54.547Z,6.63
2022-11-28T01:10:21.554Z,6.63
2022-11-28T01:12:48.060Z,6.64
2022-11-28T01:15:14.552Z,6.64
2022-11-28T01:17:41.002Z,6.67
2022-11-28T01:20:08.533Z,6.67
2022-11-28T01:22:35.091Z,6.69
2022-11-28T01:25:01.556Z,6.71
2022-11-28T01:27:28.075Z,6.74
2022-11-28T01:29:54.541Z,6.77
2022-11-28T01:32:21.038Z,6.80
2022-11-28T01:34:47.616Z,6.82
2022-11-28T01:37:14.042Z,6.85
2022-11-28T01:39:40.567Z,6.88
2022-11-28T01:42:07.270Z,6.90
2022-11-28T01:44:33.696Z,6.93
2022-11-28T01:47:00.181Z,6.97
2022-11-28T01:49:37.218Z,6.98
2022-11-28T01:52:07.681Z,7.01
2022-11-28T01:54:37.463Z,7.03
2022-11-28T01:57:13.353Z,7.05
2022-11-28T01:59:49.112Z,7.06
2022-11-28T02:02:25.081Z,7.10
2022-11-28T02:04:52.794Z,7.13
2022-11-28T02:07:20.378Z,7.14
2022-11-28T02:09:46.904Z,7.16
2022-11-28T02:12:28.456Z,7.17
2022-11-28T02:15:22.218Z,7.19
2022-11-28T02:18:09.905Z,7.20
2022-11-28T02:21:06.439Z,7.21
2022-11-28T02:23:46.700Z,7.24
2022-11-28T02:26:35.748Z,7.24
2022-11-28T02:29:34.050Z,7.26
2022-11-28T02:32:51.855Z,7.28
2022-11-28T02:35:42.404Z,7.29
2022-11-28T02:38:31.864Z,7.30
2022-11-28T02:41:06.605Z,7.30
2022-11-28T02:43:40.791Z,7.31
2022-11-28T02:46:15.580Z,7.31
2022-11-28T02:48:50.895Z,7.31
2022-11-28T02:51:31.516Z,7.32
2022-11-28T02:54:00.301Z,7.33
2022-11-28T02:56:26.851Z,7.33
2022-11-28T02:58:53.770Z,7.34
2022-11-28T03:01:29.482Z,7.35
2022-11-28T03:04:01.743Z,7.36
2022-11-28T03:06:46.287Z,7.37
2022-11-28T03:09:31.719Z,7.36
2022-11-28T03:12:26.366Z,7.37
2022-11-28T03:14:59.990Z,7.36
2022-11-28T03:17:54.476Z,7.35
2022-11-28T03:20:28.689Z,7.36
2022-11-28T03:23:11.812Z,7.36
2022-11-28T03:25:50.596Z,7.36
2022-11-28T03:28:20.045Z,7.35
2022-11-28T03:30:57.256Z,7.35
2022-11-28T03:33:27.785Z,7.35
2022-11-28T03:36:04.176Z,7.34
2022-11-28T03:38:36.330Z,7.35
2022-11-28T03:41:12.277Z,7.34
2022-11-28T03:43:45.582Z,7.34
2022-11-28T03:46:15.995Z,7.35
2022-11-28T03:48:48.038Z,7.34
2022-11-28T03:51:22.032Z,7.36
2022-11-28T03:53:59.912Z,7.36
2022-11-28T03:56:54.093Z,7.36
2022-11-28T03:59:26.922Z,7.35
2022-11-28T04:02:06.213Z,7.35
2022-11-28T04:05:11.621Z,7.35
2022-11-28T04:08:06.001Z,7.35
2022-11-28T04:11:03.452Z,7.36
2022-11-28T04:13:34.981Z,7.34
2022-11-28T04:16:13.844Z,7.36
2022-11-28T04:18:52.606Z,7.35
2022-11-28T04:21:57.076Z,7.35
2022-11-28T04:24:30.375Z,7.36
2022-11-28T04:27:10.334Z,7.34
2022-11-28T04:29:55.019Z,7.35
2022-11-28T04:32:23.496Z,7.36
2022-11-28T04:34:55.345Z,7.35
2022-11-28T04:37:25.179Z,7.35
2022-11-28T04:39:52.547Z,7.35
2022-11-28T04:42:37.541Z,7.35
2022-11-28T04:45:14.043Z,7.36
2022-11-28T04:47:41.209Z,7.36
2022-11-28T04:50:08.262Z,7.36
2022-11-28T04:53:08.500Z,7.35
2022-11-28T04:55:37.549Z,7.34
2022-11-28T04:58:13.371Z,7.35
2022-11-28T05:00:41.080Z,7.34
2022-11-28T05:03:09.590Z,7.34
2022-11-28T05:05:47.799Z,7.34
2022-11-28T05:08:15.213Z,7.34
2022-11-28T05:10:42.495Z,7.33
2022-11-28T05:13:09.472Z,7.33
2022-11-28T05:15:36.301Z,7.33
2022-11-28T05:18:03.228Z,7.35
2022-11-28T05:20:30.416Z,7.35
2022-11-28T05:22:56.970Z,7.35
2022-11-28T05:25:23.736Z,7.35
2022-11-28T05:27:50.192Z,7.34
2022-11-28T05:30:17.055Z,7.34
2022-11-28T05:32:43.581Z,7.34
2022-11-28T05:35:10.214Z,7.34
2022-11-28T05:37:36.944Z,7.34
2022-11-28T05:40:04.185Z,7.33
2022-11-28T05:42:35.398Z,7.33
2022-11-28T05:45:02.508Z,7.33
2022-11-28T05:47:33.388Z,7.33
2022-11-28T05:50:00.172Z,7.33
2022-11-28T05:52:29.696Z,7.33
2022-11-28T05:54:56.240Z,7.34
2022-11-28T05:57:22.741Z,7.33
2022-11-28T05:59:49.268Z,7.34
2022-11-28T06:02:15.805Z,7.33
2022-11-28T06:04:42.563Z,7.35
2022-11-28T06:07:09.192Z,7.35
2022-11-28T06:09:35.742Z,7.36
2022-11-28T06:12:03.082Z,7.34
2022-11-28T06:14:29.512Z,7.35
2022-11-28T06:16:56.123Z,7.35
2022-11-28T06:19:22.796Z,7.36
2022-11-28T06:21:50.664Z,7.34
2022-11-28T06:24:17.172Z,7.36
2022-11-28T06:26:43.777Z,7.35
2022-11-28T06:29:10.205Z,7.35
2022-11-28T06:31:36.885Z,7.36
2022-11-28T06:34:03.347Z,7.36
2022-11-28T06:36:30.922Z,7.37
2022-11-28T06:38:57.540Z,7.36
2022-11-28T06:41:24.125Z,7.38
2022-11-28T06:43:50.620Z,7.38
2022-11-28T06:46:20.421Z,7.39
2022-11-28T06:48:48.399Z,7.40
2022-11-28T06:51:15.608Z,7.39
2022-11-28T06:53:42.509Z,7.39
2022-11-28T06:56:11.957Z,7.41
2022-11-28T06:58:38.536Z,7.42
2022-11-28T07:01:10.809Z,7.42
2022-11-28T07:03:38.190Z,7.42
2022-11-28T07:06:05.682Z,7.43
2022-11-28T07:08:32.799Z,7.43
2022-11-28T07:11:07.924Z,7.43
2022-11-28T07:13:34.437Z,7.42
2022-11-28T07:16:01.002Z,7.43
2022-11-28T07:18:27.522Z,7.45
2022-11-28T07:20:53.961Z,7.45
2022-11-28T07:23:20.393Z,7.43
2022-11-28T07:25:47.145Z,7.45
2022-11-28T07:28:13.727Z,7.45
2022-11-28T07:30:40.220Z,7.45
2022-11-28T07:33:06.691Z,7.46
2022-11-28T07:35:33.887Z,7.46
2022-11-28T07:38:00.388Z,7.47
2022-11-28T07:40:26.901Z,7.47
2022-11-28T07:42:53.519Z,7.48
2022-11-28T07:45:19.944Z,7.49
2022-11-28T07:47:46.491Z,7.50
2022-11-28T07:50:12.944Z,7.52
2022-11-28T07:52:39.410Z,7.51
2022-11-28T07:55:06.316Z,7.52
2022-11-28T07:57:33.074Z,7.53
2022-11-28T07:59:59.584Z,7.53
2022-11-28T08:02:27.253Z,7.55
2022-11-28T08:04:55.387Z,7.57
2022-11-28T08:07:22.112Z,7.58
2022-11-28T08:09:48.704Z,7.58
2022-11-28T08:12:15.124Z,7.60
2022-11-28T08:14:42.005Z,7.60
2022-11-28T08:17:08.791Z,7.62
2022-11-28T08:19:35.691Z,7.63
2022-11-28T08:22:02.586Z,7.65
2022-11-28T08:24:29.153Z,7.66
2022-11-28T08:26:55.748Z,7.67
2022-11-28T08:29:22.224Z,7.69
2022-11-28T08:31:48.861Z,7.70
2022-11-28T08:34:15.488Z,7.72
2022-11-28T08:36:43.351Z,7.74
2022-11-28T08:39:27.000Z,7.76
2022-11-28T08:41:57.460Z,7.78
2022-11-28T08:44:24.210Z,7.80
2022-11-28T08:46:50.776Z,7.81
2022-11-28T08:49:17.435Z,7.82
2022-11-28T08:51:43.974Z,7.87
2022-11-28T08:54:10.654Z,7.88
2022-11-28T08:56:37.145Z,7.90
2022-11-28T08:59:04.370Z,7.93
2022-11-28T09:01:31.013Z,7.95
2022-11-28T09:03:58.925Z,7.98
2022-11-28T09:06:25.676Z,8.01
2022-11-28T09:08:53.559Z,8.03
2022-11-28T09:11:22.096Z,8.05
2022-11-28T09:13:49.223Z,8.07
2022-11-28T09:16:16.196Z,8.10
2022-11-28T09:18:43.381Z,8.11
2022-11-28T09:21:12.776Z,8.14
2022-11-28T09:23:41.220Z,8.16
2022-11-28T09:26:13.476Z,8.17
2022-11-28T09:28:40.082Z,8.18
2022-11-28T09:31:07.428Z,8.20
2022-11-28T09:33:35.115Z,8.20
2022-11-28T09:36:09.623Z,8.23
2022-11-28T09:38:36.895Z,8.28
2022-11-28T09:41:04.415Z,8.32
2022-11-28T09:43:38.342Z,8.36
2022-11-28T09:46:12.124Z,8.37
2022-11-28T09:48:45.670Z,8.41
2022-11-28T09:51:30.020Z,8.42
2022-11-28T09:54:13.402Z,8.43
2022-11-28T09:56:40.948Z,8.47
2022-11-28T09:59:24.323Z,8.53
2022-11-28T10:01:56.445Z,8.56
2022-11-28T10:04:33.470Z,8.57
2022-11-28T10:07:06.761Z,8.59
2022-11-28T10:09:33.156Z,8.59
2022-11-28T10:12:04.552Z,8.60
2022-11-28T10:14:46.297Z,8.61
2022-11-28T10:17:21.994Z,8.62
2022-11-28T10:20:02.798Z,8.64
2022-11-28T10:22:45.911Z,8.68
2022-11-28T10:25:28.438Z,8.66
2022-11-28T10:27:57.140Z,8.66
2022-11-28T10:30:26.371Z,8.72
2022-11-28T10:33:13.704Z,8.77
2022-11-28T10:35:49.736Z,8.76
2022-11-28T10:38:17.482Z,8.78
2022-11-28T10:40:57.942Z,8.79
2022-11-28T10:43:51.853Z,8.86
2022-11-28T10:46:27.831Z,8.94
2022-11-28T10:49:01.749Z,8.94
2022-11-28T10:51:47.128Z,8.98
2022-11-28T10:54:36.382Z,9.00
2022-11-28T10:57:14.185Z,9.00
2022-11-28T10:59:51.397Z,8.99
2022-11-28T11:02:30.068Z,8.98
2022-11-28T11:04:56.915Z,9.01
2022-11-28T11:07:30.843Z,9.07
2022-11-28T11:10:14.230Z,9.08
2022-11-28T11:12:41.285Z,9.08
2022-11-28T11:15:31.109Z,9.11
2022-11-28T11:18:01.077Z,9.11
2022-11-28T11:20:30.308Z,9.14
2022-11-28T11:22:59.610Z,9.20
2022-11-28T11:25:28.515Z,9.21
2022-11-28T11:27:58.016Z,9.20
2022-11-28T11:30:30.624Z,9.20
2022-11-28T11:32:59.681Z,9.19
2022-11-28T11:35:29.821Z,9.17
2022-11-28T11:38:22.651Z,9.15
2022-11-28T11:40:50.649Z,9.17
2022-11-28T11:43:26.661Z,9.18
2022-11-28T11:46:07.416Z,9.20
2022-11-28T11:48:42.813Z,9.19
2022-11-28T11:51:35.210Z,9.17
2022-11-28T11:54:19.117Z,9.20
2022-11-28T11:56:51.255Z,9.24
2022-11-28T11:59:40.972Z,9.27
2022-11-28T12:02:26.153Z,9.29
2022-11-28T12:05:09.937Z,9.35
2022-11-28T12:07:39.094Z,9.38
2022-11-28T12:10:12.416Z,9.41
2022-11-28T12:12:39.060Z,9.43
2022-11-28T12:15:15.536Z,9.48
2022-11-28T12:17:55.712Z,9.55
2022-11-28T12:20:43.955Z,9.56
2022-11-28T12:23:41.318Z,9.58
2022-11-28T12:26:16.842Z,9.61
2022-11-28T12:32:19.511Z,9.63
2022-11-28T12:35:14.138Z,9.58
2022-11-28T12:38:12.809Z,9.56
2022-11-28T12:41:07.028Z,9.56
2022-11-28T12:43:36.555Z,9.52
2022-11-28T12:46:18.603Z,9.53
2022-11-28T12:49:21.869Z,9.53
2022-11-28T12:52:07.190Z,9.56
2022-11-28T12:54:52.453Z,9.55
2022-11-28T12:57:48.404Z,9.58
2022-11-28T13:00:21.401Z,9.58
2022-11-28T13:03:04.164Z,9.59
2022-11-28T13:05:49.107Z,9.61
2022-11-28T13:08:49.959Z,9.61
2022-11-28T13:11:22.662Z,9.61
2022-11-28T13:14:26.658Z,9.60
2022-11-28T13:16:56.313Z,9.60
2022-11-28T13:19:43.994Z,9.60
2022-11-28T13:22:10.414Z,9.59
2022-11-28T13:25:19.099Z,9.60
2022-11-28T13:28:07.467Z,9.62
2022-11-28T13:30:45.732Z,9.61
2022-11-28T13:33:24.207Z,9.59
2022-11-28T13:35:52.540Z,9.60
2022-11-28T13:38:49.314Z,9.61
2022-11-28T13:44:46.170Z,9.62
2022-11-28T13:47:23.280Z,9.63
2022-11-28T13:49:49.838Z,9.64
2022-11-28T13:52:19.356Z,9.63
2022-11-28T13:54:55.482Z,9.64
2022-11-28T13:57:28.205Z,9.64
2022-11-28T14:00:19.470Z,9.60
2022-11-28T14:02:51.219Z,9.58
2022-11-28T14:05:41.595Z,9.57
2022-11-28T14:08:22.035Z,9.56
2022-11-28T14:11:07.315Z,9.53
2022-11-28T14:13:58.382Z,9.54
2022-11-28T14:16:53.359Z,9.54
2022-11-28T14:19:32.234Z,9.55
2022-11-28T14:22:20.568Z,9.54
2022-11-28T14:25:09.241Z,9.52
2022-11-28T14:27:39.848Z,9.52
2022-11-28T14:30:07.337Z,9.52
2022-11-28T14:32:38.413Z,9.50
2022-11-28T14:35:15.280Z,9.49
2022-11-28T14:37:55.138Z,9.50
2022-11-28T14:40:55.781Z,9.49
2022-11-28T14:43:42.513Z,9.49
2022-11-28T14:46:23.297Z,9.52
2022-11-28T14:48:58.921Z,9.52
2022-11-28T14:51:44.145Z,9.52
2022-11-28T14:54:28.427Z,9.49
2022-11-28T14:56:59.770Z,9.48
2022-11-28T14:59:37.052Z,9.46
2022-11-28T15:02:12.729Z,9.45
2022-11-28T15:04:57.481Z,9.44
2022-11-28T15:07:28.597Z,9.43
2022-11-28T15:10:05.758Z,9.43
2022-11-28T15:12:39.666Z,9.43
2022-11-28T15:15:12.749Z,9.41
2022-11-28T15:17:42.149Z,9.39
2022-11-28T15:20:34.144Z,9.39
2022-11-28T15:23:00.647Z,9.37
2022-11-28T15:25:30.256Z,9.36
2022-11-28T15:27:56.881Z,9.36
2022-11-28T15:30:26.766Z,9.36
2022-11-28T15:32:59.666Z,9.36
2022-11-28T15:35:26.931Z,9.35
2022-11-28T15:37:56.615Z,9.34
2022-11-28T15:40:31.193Z,9.34
2022-11-28T15:42:59.760Z,9.32
2022-11-28T15:45:32.264Z,9.30
2022-11-28T15:47:59.398Z,9.28
2022-11-28T15:50:29.088Z,9.25
2022-11-28T15:53:04.446Z,9.23
2022-11-28T15:55:33.338Z,9.21
2022-11-28T15:58:12.077Z,9.21
2022-11-28T16:00:44.016Z,9.18
2022-11-28T16:03:20.559Z,9.15
2022-11-28T16:05:48.852Z,9.12
2022-11-28T16:08:26.866Z,9.06
2022-11-28T16:10:53.521Z,8.99
2022-11-28T16:13:21.885Z,8.92
2022-11-28T16:15:50.481Z,8.89
2022-11-28T16:18:17.474Z,8.86
2022-11-28T16:20:44.326Z,8.82
2022-11-28T16:23:30.077Z,8.81
2022-11-28T16:26:05.236Z,8.81
2022-11-28T16:28:37.631Z,8.82
2022-11-28T16:31:19.287Z,8.82
2022-11-28T16:33:47.720Z,8.83
2022-11-28T16:36:21.996Z,8.83
2022-11-28T16:38:51.405Z,8.82
2022-11-28T16:41:25.523Z,8.82
2022-11-28T16:43:59.789Z,8.81
2022-11-28T16:46:40.021Z,8.81
2022-11-28T16:49:27.171Z,8.83
2022-11-28T16:52:21.404Z,8.83
2022-11-28T16:54:52.742Z,8.82
2022-11-28T16:57:20.336Z,8.82
2022-11-28T16:59:48.214Z,8.83
2022-11-28T17:02:16.217Z,8.83
2022-11-28T17:04:43.876Z,8.82
2022-11-28T17:07:13.970Z,8.81
2022-11-28T17:09:45.722Z,8.79
2022-11-28T17:12:21.679Z,8.76
2022-11-28T17:14:48.113Z,8.71
2022-11-28T17:17:16.296Z,8.66
2022-11-28T17:19:43.347Z,8.60
2022-11-28T17:22:17.046Z,8.54
2022-11-28T17:24:44.431Z,8.49
2022-11-28T17:27:16.152Z,8.43
2022-11-28T17:29:43.389Z,8.38
2022-11-28T17:32:14.020Z,8.31
2022-11-28T17:34:42.189Z,8.26
2022-11-28T17:37:09.572Z,8.22
2022-11-28T17:39:36.235Z,8.16
2022-11-28T17:42:02.709Z,8.12
2022-11-28T17:44:31.756Z,8.07
2022-11-28T17:47:00.667Z,8.02
2022-11-28T17:49:27.941Z,7.97
2022-11-28T17:51:55.835Z,7.93
2022-11-28T17:54:24.523Z,7.87
2022-11-28T17:56:52.932Z,7.82
2022-11-28T17:59:23.147Z,7.78
2022-11-28T18:01:50.543Z,7.68
2022-11-28T18:04:17.160Z,7.61
2022-11-28T18:06:45.121Z,7.57
2022-11-28T18:09:13.232Z,7.54
2022-11-28T18:11:41.629Z,7.50
2022-11-28T18:14:08.792Z,7.42
2022-11-28T18:16:39.694Z,7.32
2022-11-28T18:19:06.303Z,7.27
2022-11-28T18:21:32.917Z,7.28
2022-11-28T18:23:59.510Z,7.28
2022-11-28T18:26:26.780Z,7.26
2022-11-28T18:28:54.386Z,7.19
2022-11-28T18:31:24.733Z,7.09
2022-11-28T18:33:56.174Z,7.06
2022-11-28T18:36:27.460Z,7.02
2022-11-28T18:38:58.188Z,6.98
2022-11-28T18:41:25.355Z,6.97
2022-11-28T18:43:59.391Z,6.96
2022-11-28T18:46:26.568Z,6.94
2022-11-28T18:48:53.504Z,6.92
2022-11-28T18:51:25.685Z,6.90
2022-11-28T18:53:53.794Z,6.90
2022-11-28T18:56:21.413Z,6.89
2022-11-28T18:58:51.642Z,6.82
2022-11-28T19:01:22.143Z,6.82
2022-11-28T19:03:51.714Z,6.81
2022-11-28T19:06:18.931Z,6.75
2022-11-28T19:08:46.113Z,6.80
2022-11-28T19:11:15.229Z,6.88
2022-11-28T19:13:47.089Z,6.93
2022-11-28T19:16:18.822Z,6.93
2022-11-28T19:18:45.660Z,6.94
2022-11-28T19:21:18.860Z,6.96
2022-11-28T19:23:48.669Z,6.98
2022-11-28T19:26:17.160Z,7.01
2022-11-28T19:28:44.151Z,7.03
2022-11-28T19:31:22.773Z,7.05
2022-11-28T19:34:17.448Z,7.08
2022-11-28T19:36:50.083Z,7.10
2022-11-28T19:39:24.602Z,7.12
2022-11-28T19:41:53.149Z,7.15
2022-11-28T19:44:21.241Z,7.16
2022-11-28T19:46:48.103Z,7.16
2022-11-28T19:49:20.151Z,7.17
2022-11-28T19:51:47.246Z,7.23
2022-11-28T19:54:14.776Z,7.30
2022-11-28T19:56:41.787Z,7.34
2022-11-28T19:59:08.384Z,7.36
2022-11-28T20:01:35.007Z,7.41
2022-11-28T20:04:01.601Z,7.48
2022-11-28T20:06:30.519Z,7.52
2022-11-28T20:09:02.188Z,7.53
2022-11-28T20:11:31.879Z,7.58
2022-11-28T20:14:00.702Z,7.64
2022-11-28T20:16:29.216Z,7.67
2022-11-28T20:18:55.761Z,7.69
2022-11-28T20:21:22.223Z,7.73
2022-11-28T20:23:51.220Z,7.75
2022-11-28T20:26:19.833Z,7.78
2022-11-28T20:28:47.984Z,7.79
2022-11-28T20:31:20.342Z,7.79
2022-11-28T20:33:51.143Z,7.80
2022-11-28T20:36:20.000Z,7.81
2022-11-28T20:38:46.786Z,7.81
2022-11-28T20:41:15.617Z,7.80
2022-11-28T20:43:42.487Z,7.82
2022-11-28T20:46:14.744Z,7.81
2022-11-28T20:48:42.179Z,7.82
2022-11-28T20:51:17.248Z,7.83
2022-11-28T20:53:43.936Z,7.83
2022-11-28T20:56:19.075Z,7.84
2022-11-28T20:58:46.015Z,7.84
2022-11-28T21:01:18.183Z,7.84
2022-11-28T21:03:44.961Z,7.85
2022-11-28T21:06:11.890Z,7.87
2022-11-28T21:08:39.091Z,7.88
2022-11-28T21:11:30.543Z,7.88
2022-11-28T21:14:01.769Z,7.88
2022-11-28T21:16:31.369Z,7.88
2022-11-28T21:19:02.179Z,7.90
2022-11-28T21:21:31.197Z,7.91
2022-11-28T21:24:03.514Z,7.91
2022-11-28T21:26:39.128Z,7.91
2022-11-28T21:29:10.832Z,7.90
2022-11-28T21:31:41.952Z,7.90
2022-11-28T21:34:13.021Z,7.90
2022-11-28T21:36:39.877Z,7.91
2022-11-28T21:39:06.383Z,7.90
2022-11-28T21:41:33.364Z,7.91
2022-11-28T21:44:00.410Z,7.90
2022-11-28T21:46:27.995Z,7.92
2022-11-28T21:48:54.764Z,7.90
2022-11-28T21:51:24.257Z,7.90
2022-11-28T21:53:51.896Z,7.90
2022-11-28T21:56:18.629Z,7.90
2022-11-28T21:58:45.319Z,7.89
2022-11-28T22:01:13.340Z,7.89
2022-11-28T22:03:41.675Z,7.90
2022-11-28T22:06:14.083Z,7.90
2022-11-28T22:08:40.655Z,7.90
2022-11-28T22:11:11.098Z,7.91
2022-11-28T22:13:38.682Z,7.92
2022-11-28T22:16:19.849Z,7.92
2022-11-28T22:18:47.601Z,7.94
2022-11-28T22:24:04.912Z,7.93
2022-11-28T22:26:31.576Z,7.93
2022-11-28T22:29:01.259Z,7.94
2022-11-28T22:31:27.988Z,7.95
2022-11-28T22:33:54.551Z,7.93
2022-11-28T22:36:21.660Z,7.93
2022-11-28T22:38:49.573Z,7.92
2022-11-28T22:41:23.314Z,7.91
2022-11-28T22:43:56.554Z,7.90
2022-11-28T22:46:23.227Z,7.90
2022-11-28T22:48:50.640Z,7.89
2022-11-28T22:51:19.863Z,7.90
2022-11-28T22:53:46.357Z,7.89
2022-11-28T22:56:15.008Z,7.90
2022-11-28T22:58:44.428Z,7.90
2022-11-28T23:01:14.094Z,7.92
2022-11-28T23:03:40.612Z,7.92
2022-11-28T23:06:09.612Z,7.91
2022-11-28T23:08:36.334Z,7.91
2022-11-28T23:11:07.590Z,7.90
2022-11-28T23:13:35.572Z,7.91
2022-11-28T23:16:28.281Z,7.92
2022-11-28T23:18:56.489Z,7.95
2022-11-28T23:21:25.260Z,7.93
2022-11-28T23:23:52.395Z,7.93
2022-11-28T23:26:24.385Z,7.91
2022-11-28T23:28:51.494Z,7.92
2022-11-28T23:31:20.815Z,7.93
2022-11-28T23:33:48.424Z,7.94
2022-11-28T23:36:17.926Z,7.95
2022-11-28T23:38:45.960Z,7.95
2022-11-28T23:41:13.318Z,7.95
2022-11-28T23:43:40.212Z,7.97
2022-11-28T23:46:08.079Z,7.97
2022-11-28T23:48:34.808Z,7.98
2022-11-28T23:51:01.332Z,7.99
2022-11-28T23:53:27.939Z,7.99
2022-11-28T23:55:54.411Z,7.97
2022-11-28T23:58:21.043Z,7.97
